Time;durP1;ratioP1;P1;durP2;ratioP2;P2;SDS_P1;SDS_P2;PMS_P1;PMS_P2;Temp;Humidity;BMP_temperature;BMP_pressure;BME280_temperature;BME280_humidity;BME280_pressure;Samples;Min_cycle;Max_cycle;Signal;HPM_P1;HPM_P2
2023/02/03 00:01:21;;;;;;;23.83;11.60;;;4.30;99.90;;;;;;5051811;28;20024;-47
2023/02/03 00:03:47;;;;;;;34.80;13.88;;;4.30;99.90;;;;;;5051819;28;20024;-47
2023/02/03 00:06:13;;;;;;;29.58;12.02;;;4.30;99.90;;;;;;5051423;28;20100;-47
2023/02/03 00:08:38;;;;;;;34.53;14.20;;;4.40;99.90;;;;;;5050529;28;20031;-48
2023/02/03 00:11:04;;;;;;;27.65;13.23;;;4.40;99.90;;;;;;5051857;28;20047;-48
2023/02/03 00:13:30;;;;;;;28.10;13.30;;;4.50;99.90;;;;;;5051618;28;20430;-49
2023/02/03 00:15:55;;;;;;;26.63;13.48;;;4.50;99.90;;;;;;5049955;28;20021;-51
2023/02/03 00:18:21;;;;;;;32.85;14.27;;;4.60;99.90;;;;;;5051550;28;20386;-47
2023/02/03 00:20:46;;;;;;;32.97;14.90;;;4.60;99.90;;;;;;5051551;28;20028;-47
2023/02/03 00:23:12;;;;;;;41.45;15.88;;;4.70;99.90;;;;;;5051883;28;20514;-47
2023/02/03 00:25:39;;;;;;;44.70;18.58;;;4.80;99.90;;;;;;5051073;28;20021;-47
2023/02/03 00:28:05;;;;;;;42.80;17.42;;;4.80;99.90;;;;;;5051372;28;20024;-48
2023/02/03 00:30:32;;;;;;;40.55;15.80;;;4.80;99.90;;;;;;5051531;28;20025;-48
2023/02/03 00:32:58;;;;;;;45.88;17.63;;;4.90;99.90;;;;;;5051298;28;20108;-48
2023/02/03 00:35:23;;;;;;;51.28;17.50;;;4.90;99.90;;;;;;5051220;28;20108;-47
2023/02/03 00:37:56;;;;;;;47.17;17.63;;;5.00;99.90;;;;;;5051522;28;20020;-48
2023/02/03 00:40:24;;;;;;;48.00;18.15;;;5.10;99.90;;;;;;5051445;28;20082;-47
2023/02/03 00:42:49;;;;;;;45.58;18.85;;;5.10;99.90;;;;;;5051124;28;20028;-47
2023/02/03 00:45:15;;;;;;;40.95;18.20;;;5.20;99.90;;;;;;5050963;28;20470;-48
2023/02/03 00:47:41;;;;;;;45.92;18.67;;;5.20;99.90;;;;;;5051440;28;20490;-48
2023/02/03 00:50:08;;;;;;;44.78;18.13;;;5.30;99.90;;;;;;5051466;28;20060;-47
2023/02/03 00:52:33;;;;;;;55.42;19.63;;;5.30;99.90;;;;;;5051307;28;20087;-47
2023/02/03 00:54:59;;;;;;;38.10;16.70;;;5.30;99.90;;;;;;5049101;28;20028;-47
2023/02/03 00:57:24;;;;;;;61.58;20.08;;;5.40;99.90;;;;;;5051432;28;20107;-51
2023/02/03 00:59:50;;;;;;;41.13;18.23;;;5.40;99.90;;;;;;5051138;28;20025;-49
2023/02/03 01:02:16;;;;;;;60.28;22.00;;;5.40;99.90;;;;;;5051065;28;20359;-48
2023/02/03 01:04:42;;;;;;;58.58;22.35;;;5.50;99.90;;;;;;5049465;28;20329;-48
2023/02/03 01:07:08;;;;;;;50.90;21.02;;;5.50;99.90;;;;;;5051290;28;20025;-47
2023/02/03 01:09:34;;;;;;;73.97;26.08;;;5.60;99.90;;;;;;5051393;28;20116;-48
2023/02/03 01:12:00;;;;;;;67.20;24.20;;;5.60;99.90;;;;;;5050627;28;20128;-48
2023/02/03 01:14:26;;;;;;;68.88;24.73;;;5.70;99.90;;;;;;5050969;28;20103;-48
2023/02/03 01:16:51;;;;;;;92.47;29.25;;;5.70;99.90;;;;;;5050453;28;20025;-47
2023/02/03 01:19:17;;;;;;;92.07;28.70;;;5.70;99.90;;;;;;5050707;28;20035;-48
2023/02/03 01:21:42;;;;;;;82.28;29.92;;;5.70;99.90;;;;;;5049349;28;20024;-48
2023/02/03 01:24:11;;;;;;;79.88;27.80;;;5.70;99.90;;;;;;5050799;28;20027;-48
2023/02/03 01:26:36;;;;;;;90.63;30.13;;;5.80;99.90;;;;;;5050458;28;20056;-48
2023/02/03 01:29:02;;;;;;;114.78;36.55;;;5.80;99.90;;;;;;5050442;28;20059;-49
2023/02/03 01:31:32;;;;;;;107.22;34.25;;;5.80;99.90;;;;;;5050905;28;20063;-47
2023/02/03 01:33:58;;;;;;;110.88;35.17;;;5.90;99.90;;;;;;5050476;28;20040;-47
2023/02/03 01:36:25;;;;;;;120.40;36.28;;;5.90;99.90;;;;;;5049839;28;20505;-48
2023/02/03 01:38:51;;;;;;;103.57;33.85;;;6.00;99.90;;;;;;5050313;28;20070;-48
2023/02/03 01:41:19;;;;;;;148.93;38.85;;;6.00;99.90;;;;;;5050317;28;20533;-47
2023/02/03 01:43:47;;;;;;;111.68;39.67;;;6.00;99.90;;;;;;5050014;28;20021;-47
2023/02/03 01:46:36;;;;;;;142.40;39.80;;;6.10;99.90;;;;;;5048607;28;20114;-47
2023/02/03 01:49:12;;;;;;;122.13;39.95;;;6.10;99.90;;;;;;5050510;28;20036;-47
2023/02/03 01:51:41;;;;;;;119.70;39.00;;;6.10;99.90;;;;;;5050327;28;20017;-47
2023/02/03 01:54:12;;;;;;;131.07;40.60;;;6.20;99.90;;;;;;5049986;28;20474;-47
2023/02/03 01:56:42;;;;;;;151.52;44.08;;;6.20;99.90;;;;;;5049687;28;20434;-48
2023/02/03 01:59:09;;;;;;;114.72;40.38;;;6.30;99.90;;;;;;5050220;28;20020;-48
2023/02/03 02:01:36;;;;;;;153.32;44.15;;;6.30;99.90;;;;;;5050052;28;20036;-49
2023/02/03 02:04:03;;;;;;;189.32;52.55;;;6.40;99.90;;;;;;5050381;28;20096;-48
2023/02/03 02:06:29;;;;;;;180.13;52.08;;;6.40;99.90;;;;;;5049565;28;20028;-47
2023/02/03 02:08:59;;;;;;;184.25;50.55;;;6.40;99.90;;;;;;5049801;28;20029;-47
2023/02/03 02:11:25;;;;;;;130.95;46.75;;;6.50;99.90;;;;;;5049863;28;20455;-48
2023/02/03 02:13:53;;;;;;;195.45;57.70;;;6.50;99.90;;;;;;5049504;28;20155;-47
2023/02/03 02:16:19;;;;;;;171.82;54.05;;;6.60;99.90;;;;;;5048576;28;20021;-48
2023/02/03 02:18:53;;;;;;;185.93;56.28;;;6.60;99.90;;;;;;5049747;28;20075;-47
2023/02/03 02:21:41;;;;;;;190.68;56.78;;;6.70;99.90;;;;;;5049289;28;20021;-47
2023/02/03 02:24:16;;;;;;;197.20;57.55;;;6.80;99.90;;;;;;5049653;28;20063;-48
2023/02/03 02:27:05;;;;;;;218.70;62.60;;;6.90;99.90;;;;;;5049400;28;20028;-47
2023/02/03 02:29:50;;;;;;;168.02;56.60;;;6.90;99.90;;;;;;5049375;28;20599;-47
2023/02/03 02:32:45;;;;;;;169.50;57.78;;;7.00;99.90;;;;;;5049637;28;20120;-48
2023/02/03 02:35:39;;;;;;;190.65;63.17;;;7.00;99.90;;;;;;5048981;28;20025;-48
2023/02/03 02:38:19;;;;;;;217.40;63.92;;;6.90;99.90;;;;;;5049553;28;20060;-47
2023/02/03 02:41:05;;;;;;;150.77;53.42;;;7.00;99.90;;;;;;5049818;28;20436;-48
2023/02/03 02:43:39;;;;;;;187.52;57.20;;;7.00;99.90;;;;;;5049403;28;20506;-47
2023/02/03 02:46:16;;;;;;;189.38;60.58;;;7.00;99.90;;;;;;5048872;28;20017;-47
2023/02/03 02:48:53;;;;;;;160.45;52.33;;;7.00;99.90;;;;;;5049350;28;20025;-47
2023/02/03 02:51:20;;;;;;;147.52;50.90;;;7.00;99.90;;;;;;5049239;28;20104;-48
2023/02/03 02:53:52;;;;;;;156.40;50.42;;;7.00;99.90;;;;;;5049341;28;20029;-47
2023/02/03 02:56:18;;;;;;;144.75;50.65;;;7.00;99.90;;;;;;5049016;28;20166;-47
2023/02/03 02:58:47;;;;;;;166.93;52.38;;;7.10;99.90;;;;;;5049099;28;20029;-47
2023/02/03 03:01:13;;;;;;;133.32;48.33;;;7.00;99.90;;;;;;5049193;28;20017;-47
2023/02/03 03:03:41;;;;;;;134.55;47.22;;;7.00;99.90;;;;;;5049062;28;20039;-47
2023/02/03 03:06:19;;;;;;;143.10;49.97;;;7.00;99.90;;;;;;5048853;28;20023;-47
2023/02/03 03:08:51;;;;;;;162.77;52.45;;;7.00;99.90;;;;;;5049301;28;20441;-48
2023/02/03 03:11:17;;;;;;;119.15;43.63;;;7.10;99.90;;;;;;5049261;28;20075;-48
2023/02/03 03:13:52;;;;;;;151.48;50.85;;;7.00;99.90;;;;;;5048719;28;20017;-48
2023/02/03 03:16:30;;;;;;;134.55;46.33;;;7.00;99.90;;;;;;5048722;28;20237;-47
2023/02/03 03:19:00;;;;;;;122.70;44.88;;;7.10;99.90;;;;;;5049088;28;20047;-47
2023/02/03 03:21:31;;;;;;;120.67;45.53;;;7.10;99.90;;;;;;5047321;28;20028;-47
2023/02/03 03:24:00;;;;;;;117.00;44.90;;;7.10;99.90;;;;;;5049121;28;20021;-48
2023/02/03 03:26:42;;;;;;;101.75;42.08;;;7.10;99.90;;;;;;5048427;28;20470;-50
2023/02/03 03:29:41;;;;;;;109.55;42.28;;;7.00;99.90;;;;;;5051737;28;20064;-47
2023/02/03 03:32:08;;;;;;;98.15;37.58;;;7.00;99.90;;;;;;5032403;28;20069;-48
2023/02/03 03:34:34;;;;;;;89.22;39.80;;;7.10;99.90;;;;;;5051995;28;20112;-47
2023/02/03 03:37:22;;;;;;;74.43;35.92;;;7.10;99.90;;;;;;5052718;28;20140;-48
2023/02/03 03:39:56;;;;;;;82.65;35.92;;;7.10;99.90;;;;;;5052618;28;20032;-47
2023/02/03 03:42:49;;;;;;;82.15;35.17;;;7.10;99.90;;;;;;5051002;28;20025;-48
2023/02/03 03:45:42;;;;;;;80.47;33.42;;;7.10;99.90;;;;;;5051752;28;20025;-47
2023/02/03 03:48:29;;;;;;;80.90;33.65;;;7.10;99.90;;;;;;5052582;28;20028;-47
2023/02/03 03:51:01;;;;;;;66.18;32.35;;;7.10;99.90;;;;;;5052275;28;20074;-49
2023/02/03 03:53:29;;;;;;;66.20;30.77;;;7.20;99.90;;;;;;5051959;28;20028;-47
2023/02/03 03:55:57;;;;;;;82.38;32.83;;;7.20;99.90;;;;;;5051612;28;20324;-47
2023/02/03 03:58:29;;;;;;;66.22;30.52;;;7.10;99.90;;;;;;5051916;28;20032;-47
2023/02/03 04:00:59;;;;;;;68.05;32.15;;;7.10;99.90;;;;;;5052015;28;20017;-48
2023/02/03 04:03:33;;;;;;;55.63;28.55;;;7.10;99.90;;;;;;5052656;28;20025;-49
2023/02/03 04:05:59;;;;;;;52.17;26.65;;;7.20;99.90;;;;;;5050235;28;20052;-51
2023/02/03 04:08:25;;;;;;;64.65;28.05;;;7.20;99.90;;;;;;5052247;28;20060;-49
2023/02/03 04:10:50;;;;;;;56.53;28.00;;;7.20;99.90;;;;;;5050467;28;20425;-49
2023/02/03 04:13:18;;;;;;;57.00;28.45;;;7.10;99.90;;;;;;5051596;28;20029;-47
2023/02/03 04:15:44;;;;;;;55.33;26.40;;;7.20;99.90;;;;;;5051199;28;20059;-47
2023/02/03 04:18:13;;;;;;;62.17;28.05;;;7.20;99.90;;;;;;5052114;28;20344;-47
2023/02/03 04:20:39;;;;;;;59.90;26.95;;;7.20;99.90;;;;;;5051453;28;20425;-47
2023/02/03 04:23:04;;;;;;;56.35;26.63;;;7.20;99.90;;;;;;5051382;28;20025;-47
2023/02/03 04:25:30;;;;;;;63.05;28.10;;;7.20;99.90;;;;;;5050939;28;20025;-47
2023/02/03 04:27:55;;;;;;;53.40;25.83;;;7.10;99.90;;;;;;5051371;28;20043;-47
2023/02/03 04:30:21;;;;;;;50.65;24.58;;;7.20;99.90;;;;;;5051401;28;20493;-47
2023/02/03 04:32:47;;;;;;;49.03;25.00;;;7.30;99.90;;;;;;5051335;28;20417;-47
2023/02/03 04:35:13;;;;;;;47.85;24.25;;;7.30;99.90;;;;;;5050781;28;20028;-48
2023/02/03 04:37:38;;;;;;;46.63;23.27;;;7.20;99.90;;;;;;5051669;28;20033;-47
2023/02/03 04:40:05;;;;;;;47.83;22.80;;;7.30;99.90;;;;;;5050715;28;20021;-47
2023/02/03 04:42:30;;;;;;;57.63;23.48;;;7.30;99.90;;;;;;5050959;28;20017;-47
2023/02/03 04:44:56;;;;;;;56.33;24.65;;;7.20;99.90;;;;;;5050609;28;20106;-47
2023/02/03 04:47:21;;;;;;;50.17;23.67;;;7.30;99.90;;;;;;5051090;28;20371;-47
2023/02/03 04:49:47;;;;;;;47.50;21.35;;;7.30;99.90;;;;;;5051057;28;20387;-48
2023/02/03 04:52:13;;;;;;;44.28;21.63;;;7.30;99.90;;;;;;5050943;28;20029;-47
2023/02/03 04:54:39;;;;;;;39.50;21.38;;;7.30;99.90;;;;;;5050382;28;20033;-47
2023/02/03 04:57:05;;;;;;;36.75;21.08;;;7.30;99.90;;;;;;5050617;28;20027;-47
2023/02/03 04:59:31;;;;;;;41.75;20.92;;;7.30;99.90;;;;;;5050671;28;20028;-47
2023/02/03 05:01:57;;;;;;;44.08;21.77;;;7.40;99.90;;;;;;5050474;28;20029;-47
2023/02/03 05:04:22;;;;;;;34.35;21.35;;;7.30;99.90;;;;;;5043432;28;20453;-47
2023/02/03 05:06:48;;;;;;;35.38;20.35;;;7.40;99.90;;;;;;5050117;28;20024;-47
2023/02/03 05:09:14;;;;;;;45.45;21.55;;;7.40;99.90;;;;;;5050651;28;20497;-48
2023/02/03 05:11:40;;;;;;;47.25;21.77;;;7.40;99.90;;;;;;5050488;28;20036;-48
2023/02/03 05:14:05;;;;;;;44.95;21.42;;;7.40;99.90;;;;;;5050606;28;20429;-48
2023/02/03 05:16:31;;;;;;;35.53;19.38;;;7.40;99.90;;;;;;5050185;28;20021;-48
2023/02/03 05:18:56;;;;;;;42.80;18.75;;;7.40;99.90;;;;;;5049490;28;20063;-48
2023/02/03 05:21:22;;;;;;;36.25;18.73;;;7.30;99.90;;;;;;5050520;28;20102;-47
2023/02/03 05:23:47;;;;;;;47.85;20.73;;;7.40;99.90;;;;;;5050741;28;20449;-48
2023/02/03 05:26:13;;;;;;;39.58;20.95;;;7.30;99.90;;;;;;5050055;28;20029;-48
2023/02/03 05:28:38;;;;;;;43.08;20.48;;;7.30;99.90;;;;;;5050413;28;20024;-50
2023/02/03 05:31:04;;;;;;;34.05;19.40;;;7.30;99.90;;;;;;5050250;28;20116;-48
2023/02/03 05:33:30;;;;;;;40.92;20.00;;;7.30;99.90;;;;;;5050057;28;20027;-50
2023/02/03 05:35:55;;;;;;;37.67;19.42;;;7.30;99.90;;;;;;5049673;28;20033;-51
2023/02/03 05:38:21;;;;;;;34.85;19.10;;;7.30;99.90;;;;;;5045769;28;20028;-49
2023/02/03 05:43:32;;;;;;;35.47;19.67;;;7.30;99.90;;;;;;5050552;28;20035;-47
2023/02/03 05:46:05;;;;;;;30.23;18.95;;;7.40;99.90;;;;;;5049701;28;20063;-47
2023/02/03 05:48:31;;;;;;;43.53;20.65;;;7.40;99.90;;;;;;5050115;28;20028;-47
2023/02/03 05:50:57;;;;;;;49.28;20.38;;;7.40;99.90;;;;;;5049771;28;20413;-48
2023/02/03 05:53:23;;;;;;;35.20;18.27;;;7.40;99.90;;;;;;5049985;28;20029;-48
2023/02/03 05:55:49;;;;;;;31.73;16.67;;;7.40;99.90;;;;;;5049406;28;20025;-48
2023/02/03 05:58:14;;;;;;;37.05;19.95;;;7.40;99.90;;;;;;5050027;28;20086;-46
2023/02/03 06:00:40;;;;;;;46.88;19.40;;;7.40;99.90;;;;;;5049835;28;20392;-47
2023/02/03 06:03:06;;;;;;;40.85;18.70;;;7.40;99.90;;;;;;5049630;28;20494;-47
2023/02/03 06:05:33;;;;;;;38.63;17.92;;;7.30;99.90;;;;;;5049587;28;20037;-38
2023/02/03 06:07:59;;;;;;;26.17;17.02;;;7.30;99.90;;;;;;5049789;28;20039;-38
2023/02/03 06:10:25;;;;;;;41.08;17.92;;;7.30;99.90;;;;;;5049686;28;20025;-38
2023/02/03 06:12:51;;;;;;;36.97;17.85;;;7.50;99.90;;;;;;5049755;28;20055;-38
2023/02/03 06:15:17;;;;;;;21.65;13.20;;;7.40;99.90;;;;;;5049242;28;20471;-38
2023/02/03 06:17:47;;;;;;;28.65;14.32;;;7.50;99.90;;;;;;5049355;28;20033;-38
2023/02/03 06:20:15;;;;;;;25.88;13.57;;;7.70;99.90;;;;;;5049609;28;20044;-38
2023/02/03 06:22:41;;;;;;;18.88;13.07;;;7.80;99.90;;;;;;5049370;28;20036;-38
2023/02/03 06:25:08;;;;;;;22.85;12.40;;;7.90;99.90;;;;;;5048884;28;20506;-38
2023/02/03 06:27:34;;;;;;;24.10;9.70;;;8.00;99.90;;;;;;5049633;28;20032;-38
2023/02/03 06:29:59;;;;;;;24.13;10.50;;;8.10;99.90;;;;;;5049796;28;20397;-38
2023/02/03 06:32:25;;;;;;;17.23;10.05;;;8.20;99.90;;;;;;5049288;28;20039;-38
2023/02/03 06:34:51;;;;;;;17.73;9.65;;;8.30;99.90;;;;;;5048638;28;20025;-38
2023/02/03 06:37:16;;;;;;;21.25;10.38;;;8.20;99.90;;;;;;5049282;28;20104;-38
2023/02/03 06:39:42;;;;;;;15.35;9.00;;;8.20;99.90;;;;;;5049285;28;20406;-38
2023/02/03 06:42:07;;;;;;;20.95;10.35;;;8.20;99.90;;;;;;5049475;28;20017;-38
2023/02/03 06:44:33;;;;;;;19.80;9.43;;;8.30;99.90;;;;;;5048920;28;20032;-38
2023/02/03 06:46:58;;;;;;;19.38;10.13;;;8.20;99.90;;;;;;5049183;28;20029;-38
2023/02/03 06:49:24;;;;;;;16.40;9.43;;;8.20;99.90;;;;;;5049464;28;20025;-38
2023/02/03 06:51:53;;;;;;;20.50;9.52;;;8.20;99.90;;;;;;5049186;28;20494;-38
2023/02/03 06:54:18;;;;;;;19.13;9.60;;;8.20;99.90;;;;;;5048918;28;20061;-38
2023/02/03 06:56:44;;;;;;;22.60;8.77;;;8.30;99.90;;;;;;5048754;28;20052;-38
2023/02/03 06:59:10;;;;;;;18.38;8.90;;;8.20;99.90;;;;;;5049105;28;20385;-38
2023/02/03 07:01:36;;;;;;;13.63;8.63;;;8.30;99.90;;;;;;5047726;28;20025;-38
2023/02/03 07:04:02;;;;;;;16.52;8.40;;;8.20;99.90;;;;;;5052186;28;20021;-38
2023/02/03 07:06:29;;;;;;;17.65;8.98;;;8.20;99.90;;;;;;5052924;28;20044;-38
2023/02/03 07:08:56;;;;;;;15.98;7.53;;;8.20;99.90;;;;;;5052828;28;20025;-37
2023/02/03 07:11:22;;;;;;;13.93;8.20;;;8.30;99.90;;;;;;5053077;28;20085;-38
2023/02/03 07:13:48;;;;;;;16.98;7.82;;;8.30;99.90;;;;;;5051875;28;20490;-38
2023/02/03 07:16:13;;;;;;;15.32;7.70;;;8.30;99.90;;;;;;5052424;28;20124;-38
2023/02/03 07:18:39;;;;;;;10.93;7.28;;;8.40;99.90;;;;;;5052797;28;20104;-37
2023/02/03 07:21:05;;;;;;;17.17;9.27;;;8.40;99.90;;;;;;5052735;28;20060;-37
2023/02/03 07:23:31;;;;;;;14.82;7.43;;;8.40;99.90;;;;;;5052500;28;20032;-37
2023/02/03 07:26:05;;;;;;;15.88;7.65;;;8.30;99.90;;;;;;5052646;28;20300;-38
2023/02/03 07:28:32;;;;;;;12.07;6.78;;;8.30;99.90;;;;;;5052856;28;20029;-37
2023/02/03 07:30:58;;;;;;;16.17;8.05;;;8.30;99.90;;;;;;5052711;28;20022;-38
2023/02/03 07:33:23;;;;;;;15.18;6.90;;;8.30;99.90;;;;;;5052462;28;20040;-38
2023/02/03 07:35:55;;;;;;;12.52;7.55;;;8.30;99.90;;;;;;5050429;28;20079;-38
2023/02/03 07:38:21;;;;;;;15.77;7.53;;;8.30;99.90;;;;;;5052419;28;20021;-38
2023/02/03 07:40:47;;;;;;;12.05;5.97;;;8.40;99.90;;;;;;5052391;28;20025;-37
2023/02/03 07:43:13;;;;;;;15.80;6.68;;;8.30;99.90;;;;;;5052446;28;20027;-39
2023/02/03 07:45:38;;;;;;;13.05;6.60;;;8.40;99.90;;;;;;5051908;28;20100;-37
2023/02/03 07:48:04;;;;;;;8.27;5.95;;;8.30;99.90;;;;;;5052296;28;20435;-38
2023/02/03 07:50:31;;;;;;;11.00;6.47;;;8.40;99.90;;;;;;5052039;28;20021;-37
2023/02/03 07:52:57;;;;;;;13.55;6.75;;;8.40;99.90;;;;;;5052163;28;20021;-38
2023/02/03 07:55:22;;;;;;;12.27;6.05;;;8.40;99.90;;;;;;5051503;28;20504;-37
2023/02/03 07:57:48;;;;;;;8.05;5.82;;;8.30;99.90;;;;;;5052349;28;20025;-37
2023/02/03 08:00:15;;;;;;;10.02;5.97;;;8.30;99.90;;;;;;5052566;28;20025;-38
2023/02/03 08:02:44;;;;;;;8.93;6.13;;;8.30;99.90;;;;;;5052077;28;20032;-38
2023/02/03 08:05:11;;;;;;;9.40;5.78;;;8.30;99.90;;;;;;5051162;28;20032;-38
2023/02/03 08:07:36;;;;;;;8.45;5.63;;;8.30;99.90;;;;;;5051902;28;20055;-38
2023/02/03 08:10:02;;;;;;;9.38;5.63;;;8.30;99.90;;;;;;5052088;28;20033;-38
2023/02/03 08:12:28;;;;;;;6.45;5.00;;;8.40;99.90;;;;;;5051873;28;20048;-38
2023/02/03 08:14:53;;;;;;;10.95;5.40;;;8.30;99.90;;;;;;5050651;28;20025;-38
2023/02/03 08:17:19;;;;;;;5.88;5.13;;;8.40;99.90;;;;;;5052216;28;20374;-38
2023/02/03 08:19:45;;;;;;;7.22;4.93;;;8.40;99.90;;;;;;5051843;28;20096;-38
2023/02/03 08:22:15;;;;;;;11.80;5.63;;;8.40;99.90;;;;;;5051871;28;20426;-38
2023/02/03 08:24:45;;;;;;;8.15;5.15;;;8.40;99.90;;;;;;5051246;28;20112;-38
2023/02/03 08:27:16;;;;;;;12.10;5.35;;;8.40;99.90;;;;;;5051485;28;20033;-38
2023/02/03 08:29:42;;;;;;;6.43;5.20;;;8.40;99.90;;;;;;5051811;28;20107;-38
2023/02/03 08:32:10;;;;;;;7.38;5.30;;;8.40;99.90;;;;;;5051823;28;20056;-38
2023/02/03 08:34:36;;;;;;;7.72;5.40;;;8.50;99.90;;;;;;5051217;28;20024;-38
2023/02/03 08:37:01;;;;;;;8.45;5.93;;;8.50;99.90;;;;;;5051737;28;20375;-38
2023/02/03 08:39:27;;;;;;;11.40;6.28;;;8.50;99.90;;;;;;5051769;28;20023;-38
2023/02/03 08:41:53;;;;;;;15.02;6.25;;;8.50;99.90;;;;;;5051326;28;20497;-38
2023/02/03 08:44:19;;;;;;;10.23;7.55;;;8.50;99.90;;;;;;5051287;28;20060;-38
2023/02/03 08:46:52;;;;;;;15.40;6.65;;;8.50;99.90;;;;;;5050759;28;20025;-38
2023/02/03 08:49:18;;;;;;;14.85;6.97;;;8.50;99.90;;;;;;5051377;28;20021;-38
2023/02/03 08:51:45;;;;;;;14.20;7.22;;;8.60;99.90;;;;;;5051413;28;20490;-38
2023/02/03 08:54:11;;;;;;;12.32;7.82;;;8.60;99.90;;;;;;5049736;28;20543;-37
2023/02/03 08:56:38;;;;;;;12.52;8.30;;;8.60;99.90;;;;;;5050720;28;20025;-45
2023/02/03 08:59:04;;;;;;;10.38;7.18;;;8.60;99.90;;;;;;5049708;28;20033;-37
2023/02/03 09:01:29;;;;;;;11.32;8.65;;;8.60;99.90;;;;;;5050980;28;20082;-38
2023/02/03 09:03:55;;;;;;;16.55;8.20;;;8.60;99.90;;;;;;5051417;28;20021;-37
2023/02/03 09:06:21;;;;;;;15.48;8.18;;;8.70;99.90;;;;;;5050464;28;20096;-37
2023/02/03 09:08:47;;;;;;;14.80;9.77;;;8.70;99.90;;;;;;5051525;28;20068;-38
2023/02/03 09:11:15;;;;;;;19.15;8.80;;;8.70;99.90;;;;;;5050716;28;20025;-38
2023/02/03 09:13:44;;;;;;;15.13;7.95;;;8.70;99.90;;;;;;5050744;28;20056;-37
2023/02/03 09:16:11;;;;;;;19.83;10.00;;;8.70;99.90;;;;;;5050646;28;20033;-38
2023/02/03 09:18:37;;;;;;;14.68;8.23;;;8.80;99.90;;;;;;5050847;28;20079;-37
2023/02/03 09:21:04;;;;;;;14.10;9.18;;;8.80;99.90;;;;;;5050546;28;20390;-38
2023/02/03 09:23:30;;;;;;;15.55;8.75;;;8.80;99.90;;;;;;5051276;28;20028;-38
2023/02/03 09:26:01;;;;;;;19.75;8.90;;;8.80;99.90;;;;;;5050258;28;20382;-38
2023/02/03 09:28:26;;;;;;;11.80;8.07;;;8.80;99.90;;;;;;5050706;28;20029;-38
2023/02/03 09:30:52;;;;;;;18.63;8.88;;;8.80;99.90;;;;;;5050841;28;20628;-38
2023/02/03 09:33:17;;;;;;;20.13;9.32;;;8.80;99.90;;;;;;5050369;28;20111;-38
2023/02/03 09:35:54;;;;;;;21.33;9.25;;;8.80;99.90;;;;;;5049658;28;20065;-37
2023/02/03 09:38:19;;;;;;;14.23;8.43;;;8.80;99.90;;;;;;5050432;28;20048;-37
2023/02/03 09:40:51;;;;;;;15.35;7.32;;;8.80;99.90;;;;;;5050265;28;20525;-37
2023/02/03 09:43:22;;;;;;;12.05;7.90;;;8.80;99.90;;;;;;5050305;28;20029;-38
2023/02/03 09:45:49;;;;;;;19.08;8.48;;;8.90;99.90;;;;;;5049756;28;20260;-37
2023/02/03 09:48:22;;;;;;;16.05;6.85;;;8.80;99.90;;;;;;5050233;28;20029;-37
2023/02/03 09:50:49;;;;;;;15.77;7.10;;;8.80;99.90;;;;;;5049997;28;20270;-37
2023/02/03 09:53:44;;;;;;;16.42;7.25;;;8.90;99.90;;;;;;5050418;28;20474;-37
2023/02/03 09:56:22;;;;;;;15.20;6.60;;;8.90;99.90;;;;;;5049539;28;20036;-38
2023/02/03 09:58:48;;;;;;;13.55;6.78;;;8.90;99.90;;;;;;5050269;28;20039;-37
2023/02/03 10:01:16;;;;;;;15.90;6.40;;;8.90;99.90;;;;;;5050256;28;20486;-37
2023/02/03 10:04:01;;;;;;;11.15;5.47;;;8.90;99.90;;;;;;5049873;28;20064;-38
2023/02/03 10:06:37;;;;;;;13.65;5.85;;;8.90;99.90;;;;;;5049397;28;20051;-37
2023/02/03 10:09:15;;;;;;;14.63;6.25;;;8.80;99.90;;;;;;5050008;28;20055;-37
2023/02/03 10:12:21;;;;;;;14.88;6.28;;;8.90;99.90;;;;;;5049629;28;20339;-38
2023/02/03 10:15:14;;;;;;;15.02;6.00;;;8.80;99.90;;;;;;5049284;28;20036;-37
2023/02/03 10:18:02;;;;;;;12.70;5.93;;;8.80;99.90;;;;;;5049899;28;20086;-37
2023/02/03 10:20:44;;;;;;;13.88;6.63;;;8.80;99.90;;;;;;5049023;28;20108;-37
2023/02/03 10:23:19;;;;;;;15.57;6.18;;;8.80;99.90;;;;;;5049398;28;20512;-38
2023/02/03 10:25:55;;;;;;;17.70;6.40;;;8.80;99.90;;;;;;5049362;28;20036;-38
2023/02/03 10:28:28;;;;;;;13.32;5.53;;;8.80;99.90;;;;;;5049757;28;20532;-37
2023/02/03 10:31:07;;;;;;;14.10;6.13;;;8.70;99.90;;;;;;5049679;28;20131;-38
2023/02/03 10:33:33;;;;;;;14.10;6.50;;;8.70;99.90;;;;;;5049594;28;20029;-37
2023/02/03 10:36:20;;;;;;;22.92;7.35;;;8.60;99.90;;;;;;5047586;28;20104;-38
2023/02/03 10:39:08;;;;;;;23.92;7.60;;;8.50;99.90;;;;;;5048901;28;20390;-37
2023/02/03 10:41:34;;;;;;;12.50;4.38;;;8.50;99.90;;;;;;5049623;28;20120;-37
2023/02/03 10:44:04;;;;;;;10.40;2.65;;;8.40;99.90;;;;;;5048118;28;20104;-37
2023/02/03 10:46:33;;;;;;;9.73;2.20;;;8.30;99.90;;;;;;5047836;28;20128;-37
2023/02/03 10:48:59;;;;;;;23.23;4.43;;;8.10;99.90;;;;;;5049503;28;20449;-37
2023/02/03 10:51:30;;;;;;;19.58;3.47;;;8.00;99.90;;;;;;5049230;28;20100;-37
2023/02/03 10:53:56;;;;;;;19.08;3.47;;;7.90;99.90;;;;;;5049055;28;20028;-37
2023/02/03 10:56:29;;;;;;;15.63;3.17;;;7.80;99.90;;;;;;5047465;28;20020;-50
2023/02/03 10:58:57;;;;;;;11.82;2.40;;;7.80;99.90;;;;;;5049430;28;20021;-49
2023/02/03 11:01:37;;;;;;;17.60;2.33;;;7.70;99.90;;;;;;5048027;28;20029;-47
2023/02/03 11:04:04;;;;;;;14.93;2.63;;;7.70;99.90;;;;;;5049109;28;20017;-47
2023/02/03 11:06:31;;;;;;;13.25;3.40;;;7.60;99.90;;;;;;5030663;28;20124;-48
2023/02/03 11:08:57;;;;;;;14.25;3.05;;;7.60;99.90;;;;;;5049236;28;20021;-47
2023/02/03 11:11:31;;;;;;;13.80;3.63;;;7.60;99.90;;;;;;5047649;28;20025;-47
2023/02/03 11:14:02;;;;;;;14.00;3.45;;;7.60;99.90;;;;;;5049203;28;20071;-48
2023/02/03 11:16:30;;;;;;;24.50;3.03;;;7.70;99.90;;;;;;5048719;28;20017;-47
2023/02/03 11:19:01;;;;;;;14.00;3.60;;;7.70;99.90;;;;;;5049077;28;20448;-47
2023/02/03 11:21:36;;;;;;;19.23;3.67;;;7.80;99.90;;;;;;5049057;28;20035;-47
2023/02/03 11:24:04;;;;;;;18.98;4.65;;;7.80;99.90;;;;;;5049120;28;20025;-48
2023/02/03 11:26:34;;;;;;;21.33;3.72;;;8.00;99.90;;;;;;5048882;28;20074;-47
2023/02/03 11:29:01;;;;;;;15.25;3.20;;;8.00;99.90;;;;;;5049005;28;20028;-47
2023/02/03 11:31:31;;;;;;;18.88;4.15;;;8.10;99.90;;;;;;5047675;28;20565;-48
2023/02/03 11:34:01;;;;;;;27.92;4.28;;;8.20;99.90;;;;;;5048801;28;20025;-47
2023/02/03 11:36:28;;;;;;;23.07;4.07;;;8.20;99.90;;;;;;5047264;28;20194;-48
2023/02/03 11:39:09;;;;;;;16.17;4.07;;;8.20;99.90;;;;;;5046944;28;20268;-47
2023/02/03 11:41:39;;;;;;;23.35;4.20;;;8.30;99.90;;;;;;5048819;28;20415;-48
2023/02/03 11:44:32;;;;;;;22.88;4.75;;;8.30;99.90;;;;;;5048766;28;20032;-48
2023/02/03 11:47:06;;;;;;;26.35;4.13;;;8.30;99.90;;;;;;5046176;28;20071;-46
2023/02/03 11:49:38;;;;;;;16.77;4.55;;;8.30;99.90;;;;;;5049496;28;20052;-48
2023/02/03 11:52:26;;;;;;;24.15;5.03;;;8.30;99.90;;;;;;5052277;28;20321;-48
2023/02/03 11:55:06;;;;;;;21.13;5.20;;;8.40;99.90;;;;;;5051772;28;20334;-47
2023/02/03 11:57:43;;;;;;;26.20;4.90;;;8.40;99.90;;;;;;5052074;28;20013;-49
2023/02/03 12:00:30;;;;;;;27.20;5.57;;;8.50;99.90;;;;;;5052440;28;20056;-47
2023/02/03 12:03:04;;;;;;;29.80;4.68;;;8.60;99.90;;;;;;5051218;28;20486;-47
2023/02/03 12:06:07;;;;;;;33.25;6.70;;;8.70;99.90;;;;;;5051497;28;20056;-50
2023/02/03 12:09:02;;;;;;;24.92;6.10;;;8.80;99.90;;;;;;5050751;28;20051;-47
2023/02/03 12:11:48;;;;;;;32.28;6.43;;;9.00;99.90;;;;;;5052079;28;20021;-47
2023/02/03 12:14:23;;;;;;;24.58;5.43;;;9.00;99.90;;;;;;5052227;28;20237;-50
2023/02/03 12:17:10;;;;;;;29.30;7.40;;;9.10;99.90;;;;;;5050089;28;20501;-48
2023/02/03 12:20:06;;;;;;;31.73;5.88;;;9.10;99.90;;;;;;5051905;28;20029;-49
2023/02/03 12:22:50;;;;;;;33.08;6.07;;;9.10;99.90;;;;;;5050536;28;20093;-50
2023/02/03 12:25:33;;;;;;;32.08;7.22;;;9.10;99.90;;;;;;5051259;28;20474;-48
2023/02/03 12:28:13;;;;;;;31.55;6.00;;;9.20;99.90;;;;;;5051742;28;20112;-48
2023/02/03 12:30:42;;;;;;;18.15;4.28;;;9.20;99.90;;;;;;5051707;28;20033;-50
2023/02/03 12:33:37;;;;;;;29.77;5.43;;;9.20;99.90;;;;;;5050555;28;20490;-47
2023/02/03 12:36:29;;;;;;;28.95;6.03;;;9.20;99.90;;;;;;5051118;28;20112;-50
2023/02/03 12:39:20;;;;;;;23.48;5.63;;;9.20;99.90;;;;;;5046691;28;20505;-48
2023/02/03 12:41:57;;;;;;;35.63;5.53;;;9.20;99.90;;;;;;5039663;28;20397;-47
2023/02/03 12:44:30;;;;;;;27.58;6.72;;;9.20;99.90;;;;;;5051755;28;20506;-51
2023/02/03 12:47:03;;;;;;;26.35;4.93;;;9.20;99.90;;;;;;5051306;28;20040;-47
2023/02/03 12:49:53;;;;;;;28.40;5.32;;;9.20;99.90;;;;;;5051551;28;20095;-48
2023/02/03 12:52:35;;;;;;;32.15;8.10;;;9.40;99.90;;;;;;5051424;28;20017;-48
2023/02/03 12:55:24;;;;;;;27.73;5.53;;;9.30;99.90;;;;;;5050890;28;20472;-49
2023/02/03 12:58:02;;;;;;;25.15;5.78;;;9.30;99.90;;;;;;5051177;28;20071;-47
2023/02/03 13:00:49;;;;;;;25.13;5.47;;;9.40;99.90;;;;;;5050820;28;20107;-50